KDUC/DUC METAR and TAF weather

Enter ICAO airport designator
Station Type Date Time Source
KDUC METAR 2022/01/26 13:55 UTC NOAA

KDUC 261355Z AUTO 04008KT 10SM OVC050 M03/M16 A3044 RMK AO2 T10331164


Station Type Date Time Source
KDUC Decoded METAR 2022/01/26 13:55 UTC NOAA

Duncan, Halliburton Field Airport, OK, United States (KDUC) 34-28-15N 097-57-36W
Jan 26, 2022 - 08:55 AM EST / 2022.01.26 1355 UTC
Wind: from the NE (040 degrees) at 9 MPH (8 KT):0
Visibility: 10 mile(s):0
Sky conditions: overcast
Temperature: 26.1 F (-3.3 C)
Windchill: 17 F (-8 C):1
Dew Point: 2.5 F (-16.4 C)
Relative Humidity: 35%
Pressure (altimeter): 30.44 in. Hg (1030 hPa)
ob: KDUC 261355Z AUTO 04008KT 10SM OVC050 M03/M16 A3044 RMK AO2 T10331164
cycle: 14

Station Type Date Time Source
KDUC TAF UTC NOAA

Error!

Example: see airport list